Time;durP1;ratioP1;P1;durP2;ratioP2;P2;SDS_P1;SDS_P2;PMS_P1;PMS_P2;Temp;Humidity;BMP_temperature;BMP_pressure;BME280_temperature;BME280_humidity;BME280_pressure;Samples;Min_cycle;Max_cycle;Signal;HPM_P1;HPM_P2
2022/06/23 00:01:03;;;;;;;4.53;3.08;;;;;;;26.72;nan;101323.38;5024663;28;20472;-70
2022/06/23 00:03:34;;;;;;;5.22;3.05;;;;;;;27.03;nan;101329.06;5030574;28;20032;-70
2022/06/23 00:06:03;;;;;;;4.32;3.13;;;;;;;27.19;nan;101332.75;5030615;28;20502;-70
2022/06/23 00:08:29;;;;;;;4.53;3.03;;;;;;;27.22;nan;101326.38;5030008;28;20025;-70
2022/06/23 00:11:00;;;;;;;5.57;3.10;;;;;;;27.21;nan;101330.00;5030618;28;20025;-70
2022/06/23 00:13:35;;;;;;;4.47;3.10;;;;;;;27.22;nan;101334.41;5030404;28;20464;-70
2022/06/23 00:16:02;;;;;;;4.20;3.20;;;;;;;27.21;nan;101333.53;5030118;28;20029;-70
2022/06/23 00:18:33;;;;;;;3.67;3.00;;;;;;;27.19;nan;101330.09;5027609;28;20104;-70
2022/06/23 00:21:12;;;;;;;5.78;3.05;;;;;;;27.18;nan;101328.34;5030375;28;20140;-70
2022/06/23 00:23:41;;;;;;;5.18;3.00;;;;;;;27.18;nan;101322.13;5028786;28;20025;-70
2022/06/23 00:26:10;;;;;;;4.30;3.03;;;;;;;27.16;nan;101318.66;5030343;28;20405;-70
2022/06/23 00:28:49;;;;;;;3.92;2.80;;;;;;;27.14;nan;101318.72;5030067;28;20029;-70
2022/06/23 00:31:44;;;;;;;3.85;2.97;;;;;;;27.13;nan;101314.31;5030119;28;20021;-70
2022/06/23 00:34:20;;;;;;;3.70;2.78;;;;;;;27.11;nan;101310.84;5024246;28;20035;-70
2022/06/23 00:36:50;;;;;;;4.03;3.00;;;;;;;27.10;nan;101313.59;5028881;28;20025;-70
2022/06/23 00:39:37;;;;;;;3.90;3.00;;;;;;;27.10;nan;101311.78;5028225;28;20049;-70
2022/06/23 00:42:15;;;;;;;4.15;3.03;;;;;;;27.10;nan;101316.25;5029959;28;20034;-70
2022/06/23 00:44:48;;;;;;;4.00;2.70;;;;;;;27.06;nan;101310.22;5029146;28;20049;-70
2022/06/23 00:47:21;;;;;;;5.20;2.80;;;;;;;27.12;nan;101309.03;5029973;28;20478;-70
2022/06/23 00:49:52;;;;;;;3.65;2.70;;;;;;;27.09;nan;101304.69;5029674;28;20372;-70
2022/06/23 00:52:24;;;;;;;4.13;2.78;;;;;;;27.10;nan;101303.75;5028543;28;20060;-70
2022/06/23 00:54:54;;;;;;;3.65;2.70;;;;;;;27.05;nan;101306.66;5029502;28;20037;-70
2022/06/23 00:57:33;;;;;;;3.78;2.80;;;;;;;27.08;nan;101296.75;5023958;28;20108;-70
2022/06/23 01:00:08;;;;;;;4.22;2.65;;;;;;;27.04;nan;101291.53;5029641;28;20438;-70
2022/06/23 01:02:58;;;;;;;3.25;2.67;;;;;;;27.06;nan;101307.53;5028159;28;20040;-70
2022/06/23 01:05:32;;;;;;;2.95;2.47;;;;;;;27.03;nan;101307.66;5030073;28;20105;-70
2022/06/23 01:08:10;;;;;;;3.92;2.80;;;;;;;27.02;nan;101305.91;5029650;28;20037;-70
2022/06/23 01:11:04;;;;;;;3.50;2.50;;;;;;;27.04;nan;101309.41;5030023;28;20028;-70
2022/06/23 01:13:45;;;;;;;3.83;2.72;;;;;;;27.00;nan;101311.38;5000293;28;20049;-70
2022/06/23 01:16:20;;;;;;;3.58;2.60;;;;;;;27.03;nan;101313.88;5029736;28;20029;-70
2022/06/23 01:19:17;;;;;;;3.63;2.70;;;;;;;26.99;nan;101311.44;5028227;28;20025;-70
2022/06/23 01:21:47;;;;;;;3.00;2.58;;;;;;;27.00;nan;101307.81;5028894;28;20021;-70
2022/06/23 01:24:31;;;;;;;3.63;2.65;;;;;;;26.97;nan;101294.56;5029284;28;20076;-70
2022/06/23 01:27:09;;;;;;;3.40;2.70;;;;;;;26.99;nan;101292.69;5029805;28;20029;-70
2022/06/23 01:29:43;;;;;;;3.90;2.80;;;;;;;26.94;nan;101290.25;5029240;28;20033;-70
2022/06/23 01:32:45;;;;;;;3.80;2.70;;;;;;;26.92;nan;101284.09;5029364;28;20120;-70
2022/06/23 01:35:31;;;;;;;4.10;2.90;;;;;;;26.96;nan;101296.38;5015822;28;20037;-70
2022/06/23 01:38:09;;;;;;;3.58;2.72;;;;;;;26.94;nan;101279.56;5024853;28;20050;-70
2022/06/23 01:40:42;;;;;;;3.67;2.47;;;;;;;26.92;nan;101277.88;5027259;28;20112;-70
2022/06/23 01:43:19;;;;;;;3.53;2.60;;;;;;;26.94;nan;101286.72;5029313;28;21664;-70
2022/06/23 01:45:54;;;;;;;3.80;2.75;;;;;;;26.91;nan;101282.34;5029155;28;20033;-70
2022/06/23 01:51:28;;;;;;;4.35;2.53;;;;;;;26.90;nan;101277.06;5029508;28;20380;-70
2022/06/23 01:54:07;;;;;;;3.42;2.50;;;;;;;26.91;nan;101278.81;5027959;28;20417;-70
2022/06/23 01:56:51;;;;;;;4.10;2.60;;;;;;;26.88;nan;101274.50;5031095;28;20515;-70
2022/06/23 01:59:53;;;;;;;2.92;2.40;;;;;;;26.86;nan;101272.78;5032696;28;20438;-70
2022/06/23 02:02:24;;;;;;;3.42;2.60;;;;;;;26.89;nan;101267.34;5032220;28;20108;-70
2022/06/23 02:04:59;;;;;;;3.75;2.40;;;;;;;26.86;nan;101257.59;5032655;28;20479;-70
2022/06/23 02:07:34;;;;;;;3.40;2.35;;;;;;;26.84;nan;101258.59;5032445;28;20082;-70
2022/06/23 02:10:44;;;;;;;3.90;2.55;;;;;;;26.83;nan;101254.22;5032349;28;20033;-70
2022/06/23 02:13:27;;;;;;;3.13;2.42;;;;;;;26.82;nan;101255.16;5031566;28;20702;-70
2022/06/23 02:16:21;;;;;;;3.10;2.30;;;;;;;26.79;nan;101255.28;5032346;28;20475;-70
2022/06/23 02:18:57;;;;;;;3.35;2.53;;;;;;;26.77;nan;101263.41;5031762;28;20431;-70
2022/06/23 02:21:49;;;;;;;3.45;2.40;;;;;;;26.79;nan;101260.63;5031668;28;20060;-70
2022/06/23 02:25:13;;;;;;;2.90;2.40;;;;;;;26.78;nan;101257.09;5024432;28;20127;-70
2022/06/23 02:27:46;;;;;;;3.05;2.50;;;;;;;26.78;nan;101259.78;4992313;28;20395;-70
2022/06/23 02:30:33;;;;;;;3.05;2.30;;;;;;;26.80;nan;101257.91;5032455;28;20509;-70
2022/06/23 02:33:19;;;;;;;3.42;2.30;;;;;;;26.81;nan;101256.09;5031936;28;20056;-70
2022/06/23 02:35:53;;;;;;;2.85;2.30;;;;;;;26.78;nan;101265.13;5031593;28;20031;-70
2022/06/23 02:38:25;;;;;;;2.60;2.17;;;;;;;26.77;nan;101266.09;5031957;28;20042;-70
2022/06/23 02:41:10;;;;;;;2.88;2.20;;;;;;;26.78;nan;101264.25;5047413;28;20034;-70
2022/06/23 02:43:49;;;;;;;2.80;2.28;;;;;;;26.73;nan;101255.59;5031629;28;20061;-70
2022/06/23 02:46:54;;;;;;;2.63;2.28;;;;;;;26.76;nan;101253.66;5028116;28;20025;-70
2022/06/23 02:49:46;;;;;;;3.08;2.35;;;;;;;26.72;nan;101257.38;5023615;28;20163;-70
2022/06/23 02:52:40;;;;;;;3.03;2.20;;;;;;;26.71;nan;101255.69;5031830;28;20502;-69
2022/06/23 02:55:17;;;;;;;3.38;2.17;;;;;;;26.72;nan;101254.72;5024801;28;20057;-70
2022/06/23 02:58:02;;;;;;;3.22;2.38;;;;;;;26.72;nan;101254.72;5031832;28;20025;-70
2022/06/23 03:00:39;;;;;;;2.92;2.22;;;;;;;26.71;nan;101257.47;5031099;28;20067;-70
2022/06/23 03:03:13;;;;;;;3.17;2.10;;;;;;;26.70;nan;101256.63;5031521;28;20072;-70
2022/06/23 03:06:10;;;;;;;3.10;2.25;;;;;;;26.69;nan;101260.22;5030946;28;20479;-70
2022/06/23 03:08:47;;;;;;;3.53;2.25;;;;;;;26.70;nan;101255.75;5023251;28;20503;-70
2022/06/23 03:11:51;;;;;;;2.50;2.20;;;;;;;26.68;nan;101253.13;5031048;28;20029;-70
2022/06/23 03:14:31;;;;;;;2.80;2.38;;;;;;;26.69;nan;101262.03;5031571;28;20064;-70
2022/06/23 03:17:24;;;;;;;2.60;2.28;;;;;;;26.65;nan;101251.47;5031294;28;20479;-70
2022/06/23 03:20:08;;;;;;;2.97;2.10;;;;;;;26.69;nan;101249.53;5029690;28;20037;-70
2022/06/23 03:22:45;;;;;;;2.85;2.30;;;;;;;26.67;nan;101254.06;5030888;28;20033;-70
2022/06/23 03:25:25;;;;;;;3.03;2.05;;;;;;;26.31;nan;101251.31;5031418;28;20026;-70
2022/06/23 03:28:01;;;;;;;3.17;2.40;;;;;;;26.16;nan;101252.00;5030822;28;20105;-70
2022/06/23 03:30:39;;;;;;;2.53;2.30;;;;;;;26.14;nan;101257.41;5031446;28;20024;-70
2022/06/23 03:33:44;;;;;;;3.17;2.40;;;;;;;26.48;nan;101259.41;5029477;28;20061;-70
2022/06/23 03:36:39;;;;;;;2.85;2.25;;;;;;;26.59;nan;101261.59;5028858;28;20434;-70
2022/06/23 03:42:34;;;;;;;2.58;2.13;;;;;;;26.59;nan;101261.59;5030628;28;20609;-70
2022/06/23 03:45:22;;;;;;;2.17;1.90;;;;;;;26.55;nan;101252.84;5029575;28;20021;-70
2022/06/23 03:48:00;;;;;;;2.50;2.10;;;;;;;26.54;nan;101258.25;5030389;28;20108;-70
2022/06/23 03:50:33;;;;;;;2.30;2.00;;;;;;;26.57;nan;101266.16;5027791;28;20079;-70
2022/06/23 03:53:10;;;;;;;3.25;2.17;;;;;;;26.58;nan;101266.09;5027103;28;20087;-70
2022/06/23 03:55:56;;;;;;;2.40;1.90;;;;;;;26.55;nan;101270.69;5026435;28;20021;-70
2022/06/23 03:58:30;;;;;;;2.85;2.10;;;;;;;26.54;nan;101272.50;5019892;28;20104;-70
2022/06/23 04:01:11;;;;;;;3.40;2.17;;;;;;;26.55;nan;101268.00;5025945;28;20122;-70
2022/06/23 04:03:45;;;;;;;2.92;2.20;;;;;;;26.32;nan;101261.06;5024282;28;20109;-70
2022/06/23 04:06:38;;;;;;;2.67;2.03;;;;;;;26.09;nan;101253.19;5025864;28;20048;-70
2022/06/23 04:09:06;;;;;;;2.08;1.88;;;;;;;26.09;nan;101247.84;5017748;28;20730;-70
2022/06/23 04:11:59;;;;;;;2.03;1.83;;;;;;;26.07;nan;101247.91;5028518;28;20021;-70
2022/06/23 04:14:59;;;;;;;2.72;1.90;;;;;;;26.06;nan;101243.50;5023738;28;20505;-70
2022/06/23 04:17:26;;;;;;;4.40;2.00;;;;;;;26.07;nan;101245.25;5023046;28;20029;-70
2022/06/23 04:20:10;;;;;;;2.42;2.00;;;;;;;26.07;nan;101239.03;5019198;28;20055;-70
2022/06/23 04:22:41;;;;;;;2.92;2.10;;;;;;;26.06;nan;101229.25;5023114;28;20537;-70
2022/06/23 04:25:13;;;;;;;2.83;2.00;;;;;;;26.29;nan;101230.94;5025922;28;20144;-69
2022/06/23 04:27:44;;;;;;;2.40;2.00;;;;;;;26.51;nan;101235.22;5023745;28;20034;-70
2022/06/23 04:30:22;;;;;;;3.00;2.10;;;;;;;26.55;nan;101230.56;5022954;28;20128;-70
2022/06/23 04:32:49;;;;;;;2.42;2.13;;;;;;;26.58;nan;101233.13;5022068;28;20037;-70
2022/06/23 04:35:19;;;;;;;2.90;1.98;;;;;;;26.57;nan;101229.59;5025396;28;20057;-69
2022/06/23 04:37:55;;;;;;;2.50;2.00;;;;;;;26.58;nan;101241.16;5021171;28;20053;-70
2022/06/23 04:40:33;;;;;;;2.15;1.80;;;;;;;26.59;nan;101242.88;5025196;28;20096;-70
2022/06/23 04:43:19;;;;;;;2.80;1.98;;;;;;;26.59;nan;101235.69;5021944;28;20051;-70
2022/06/23 04:46:17;;;;;;;2.10;1.88;;;;;;;26.60;nan;101244.59;5020993;28;20037;-70
2022/06/23 04:48:56;;;;;;;1.92;1.73;;;;;;;26.58;nan;101233.13;5018771;28;20041;-70
2022/06/23 04:51:30;;;;;;;2.35;1.85;;;;;;;26.59;nan;101235.69;5022451;28;20026;-70
2022/06/23 04:53:58;;;;;;;2.67;1.92;;;;;;;26.60;nan;101244.59;5020851;28;20037;-70
2022/06/23 04:56:35;;;;;;;2.15;1.90;;;;;;;26.60;nan;101241.91;5025102;28;20905;-69
2022/06/23 04:59:22;;;;;;;3.17;1.90;;;;;;;26.61;nan;101247.19;5023722;28;20033;-70
2022/06/23 05:01:50;;;;;;;2.53;1.90;;;;;;;26.61;nan;101252.56;5022612;28;20021;-69
2022/06/23 05:04:25;;;;;;;2.65;1.85;;;;;;;26.62;nan;101251.63;5024966;28;20037;-70
2022/06/23 05:06:55;;;;;;;2.22;1.80;;;;;;;26.64;nan;101243.53;5025936;28;20033;-69
2022/06/23 05:09:38;;;;;;;2.10;1.80;;;;;;;26.64;nan;101246.22;5021258;28;20521;-69
2022/06/23 05:12:21;;;;;;;2.30;1.90;;;;;;;26.64;nan;101235.50;5023785;28;20628;-69
2022/06/23 05:14:57;;;;;;;2.05;1.73;;;;;;;26.63;nan;101239.13;5022956;28;20105;-70
2022/06/23 05:17:27;;;;;;;2.10;1.83;;;;;;;26.63;nan;101231.97;5021483;28;20138;-69
2022/06/23 05:19:55;;;;;;;2.33;1.90;;;;;;;26.66;nan;101233.59;5024504;28;20041;-70
2022/06/23 05:22:37;;;;;;;2.03;1.70;;;;;;;26.66;nan;101229.13;5020874;28;20041;-70
2022/06/23 05:25:15;;;;;;;1.90;1.70;;;;;;;26.66;nan;101231.81;5023158;28;20041;-70
2022/06/23 05:27:44;;;;;;;2.22;1.85;;;;;;;26.65;nan;101224.72;5019419;28;20033;-70
2022/06/23 05:30:26;;;;;;;1.77;1.60;;;;;;;26.66;nan;101229.13;5026661;28;20068;-70
2022/06/23 05:33:14;;;;;;;2.30;1.83;;;;;;;26.68;nan;101231.75;5030251;28;20021;-70
2022/06/23 05:35:46;;;;;;;1.92;1.73;;;;;;;26.66;nan;101221.09;5025553;28;20399;-70
2022/06/23 05:38:47;;;;;;;2.00;1.70;;;;;;;26.67;nan;101212.16;5029059;28;20049;-70
2022/06/23 05:41:22;;;;;;;2.08;1.77;;;;;;;26.69;nan;101208.53;5018468;28;20050;-70
2022/06/23 05:43:49;;;;;;;1.95;1.75;;;;;;;26.32;nan;101212.94;5026655;28;20108;-70
2022/06/23 05:46:21;;;;;;;2.20;1.80;;;;;;;26.21;nan;101212.56;5023530;28;20037;-70
2022/06/23 05:49:13;;;;;;;2.60;1.90;;;;;;;26.22;nan;101206.28;5027370;28;20026;-70
2022/06/23 05:51:42;;;;;;;2.53;1.85;;;;;;;26.69;nan;101204.06;5027430;28;20475;-70
2022/06/23 05:54:18;;;;;;;2.42;1.80;;;;;;;26.84;nan;101195.28;5030217;28;20399;-69
2022/06/23 05:57:06;;;;;;;2.25;1.80;;;;;;;26.90;nan;101195.00;5029389;28;20108;-69
2022/06/23 06:00:15;;;;;;;2.00;1.80;;;;;;;26.94;nan;101195.72;5034008;28;20052;-67
2022/06/23 06:02:56;;;;;;;2.95;1.90;;;;;;;26.99;nan;101189.22;5014392;28;20140;-67
2022/06/23 06:05:34;;;;;;;5.50;1.83;;;;;;;27.07;nan;101191.50;5022155;28;21508;-67
2022/06/23 06:08:04;;;;;;;3.28;1.80;;;;;;;27.11;nan;101200.25;5027760;28;20025;-67
2022/06/23 06:10:30;;;;;;;3.70;1.60;;;;;;;27.13;nan;101199.22;5028544;28;20025;-67
2022/06/23 06:12:57;;;;;;;1.92;1.63;;;;;;;27.18;nan;101207.91;5026048;28;20486;-70
2022/06/23 06:15:29;;;;;;;2.40;1.83;;;;;;;27.20;nan;101200.63;5035573;28;20494;-68
2022/06/23 06:18:24;;;;;;;3.35;1.95;;;;;;;27.25;nan;101197.75;5034974;28;20483;-69
2022/06/23 06:20:53;;;;;;;3.40;1.90;;;;;;;27.30;nan;101201.91;5025393;28;20041;-69
2022/06/23 06:23:36;;;;;;;3.42;2.00;;;;;;;27.32;nan;101212.56;5033869;28;20037;-70
2022/06/23 06:26:01;;;;;;;4.27;1.70;;;;;;;27.34;nan;101211.53;5034736;28;20026;-70
2022/06/23 06:28:32;;;;;;;3.15;1.80;;;;;;;27.37;nan;101222.09;5034838;28;20025;-67
2022/06/23 06:31:02;;;;;;;2.65;1.70;;;;;;;27.37;nan;101216.72;5033420;28;20030;-68
2022/06/23 06:33:45;;;;;;;2.80;1.65;;;;;;;27.39;nan;101220.19;5030144;28;20041;-68
2022/06/23 06:36:41;;;;;;;4.07;1.90;;;;;;;27.40;nan;101216.56;5031633;28;20464;-68
2022/06/23 06:39:09;;;;;;;3.72;1.85;;;;;;;27.41;nan;101201.38;5014338;28;20120;-69
2022/06/23 06:41:36;;;;;;;3.00;1.83;;;;;;;27.39;nan;101205.91;5025016;28;20037;-69
2022/06/23 06:44:02;;;;;;;3.55;1.80;;;;;;;27.42;nan;101206.66;5024270;28;20034;-68
2022/06/23 06:46:28;;;;;;;2.75;1.80;;;;;;;27.44;nan;101211.94;5031442;28;20460;-67
2022/06/23 06:48:54;;;;;;;2.65;1.90;;;;;;;27.45;nan;101208.28;5029564;28;20055;-67
2022/06/23 06:51:23;;;;;;;2.58;1.80;;;;;;;27.43;nan;101202.16;5029721;28;20033;-67
2022/06/23 06:54:00;;;;;;;4.22;1.80;;;;;;;27.46;nan;101205.53;5021295;28;20083;-66
2022/06/23 06:57:01;;;;;;;4.75;1.90;;;;;;;27.46;nan;101218.06;5029471;28;20400;-68
2022/06/23 06:59:49;;;;;;;3.78;1.80;;;;;;;27.48;nan;101212.63;4992477;28;20140;-66
2022/06/23 07:02:34;;;;;;;3.70;1.90;;;;;;;27.53;nan;101213.28;5026554;28;20034;-65
2022/06/23 07:05:07;;;;;;;3.88;2.00;;;;;;;27.52;nan;101201.72;5022399;28;20025;-66
2022/06/23 07:07:42;;;;;;;3.90;1.90;;;;;;;27.55;nan;101198.00;5029909;28;20036;-66
2022/06/23 07:10:42;;;;;;;5.78;1.90;;;;;;;27.58;nan;101197.84;5027690;28;20083;-66
2022/06/23 07:13:21;;;;;;;2.58;2.05;;;;;;;27.62;nan;101199.44;5020921;28;20032;-67
2022/06/23 07:15:55;;;;;;;4.57;2.00;;;;;;;27.56;nan;101197.94;5026279;28;20111;-70
2022/06/23 07:18:37;;;;;;;5.80;2.35;;;;;;;27.74;nan;101196.09;5032840;28;20029;-66
2022/06/23 07:21:06;;;;;;;2.55;1.95;;;;;;;27.79;nan;101205.63;5032413;28;20033;-66
2022/06/23 07:23:42;;;;;;;5.65;2.00;;;;;;;27.88;nan;101195.34;5032721;28;20037;-67
2022/06/23 07:26:34;;;;;;;3.85;2.10;;;;;;;27.84;nan;101200.03;5032442;28;20045;-67
2022/06/23 07:29:14;;;;;;;3.00;1.77;;;;;;;27.84;nan;101202.69;5026876;28;20439;-68
2022/06/23 07:32:05;;;;;;;4.53;2.00;;;;;;;27.90;nan;101198.81;5033183;28;20551;-69
2022/06/23 07:34:37;;;;;;;7.65;2.05;;;;;;;27.90;nan;101185.44;5032428;28;20033;-69
2022/06/23 07:37:32;;;;;;;5.72;2.00;;;;;;;27.97;nan;101193.06;5032219;28;20065;-67
2022/06/23 07:40:04;;;;;;;4.15;1.90;;;;;;;28.01;nan;101186.59;5033495;28;20045;-67
2022/06/23 07:42:59;;;;;;;4.78;2.00;;;;;;;27.79;nan;101181.53;5032411;28;20028;-68
2022/06/23 07:45:48;;;;;;;5.20;1.85;;;;;;;27.94;nan;101181.63;5004529;28;20052;-68
2022/06/23 07:48:14;;;;;;;5.32;1.80;;;;;;;28.05;nan;101184.63;5030737;28;20025;-67
2022/06/23 07:50:39;;;;;;;3.33;1.90;;;;;;;28.06;nan;101191.69;5031524;28;20021;-67
2022/06/23 07:53:09;;;;;;;6.10;2.00;;;;;;;27.80;nan;101191.28;5032192;28;20121;-69
2022/06/23 07:55:40;;;;;;;8.35;2.00;;;;;;;28.00;nan;101184.84;5030532;28;20061;-66
2022/06/23 07:58:07;;;;;;;5.13;1.90;;;;;;;28.11;nan;101179.78;5033658;28;20060;-65
2022/06/23 08:00:37;;;;;;;11.45;2.00;;;;;;;28.09;nan;101186.16;5032996;28;20151;-66
2022/06/23 08:03:11;;;;;;;4.68;1.90;;;;;;;28.18;nan;101177.66;5033566;28;20158;-69
2022/06/23 08:05:54;;;;;;;6.00;2.03;;;;;;;28.21;nan;101189.09;5033983;28;20014;-68
2022/06/23 08:08:24;;;;;;;7.28;2.13;;;;;;;28.26;nan;101178.09;5032547;28;20060;-70
2022/06/23 08:12:53;;;;;;;5.15;1.90;;;;;;;28.22;nan;101173.88;5030650;28;20064;-70
2022/06/23 08:13:45;;;;;;;4.32;1.92;;;;;;;28.26;nan;101175.41;5028852;28;20148;-66
2022/06/23 08:19:07;;;;;;;7.13;2.10;;;;;;;28.36;nan;101165.91;5044121;28;20530;-68
2022/06/23 08:21:40;;;;;;;3.33;2.03;;;;;;;28.38;nan;101165.81;5031844;28;20028;-68
2022/06/23 08:24:11;;;;;;;7.65;2.00;;;;;;;28.33;nan;101166.09;5030421;28;20063;-68
2022/06/23 08:26:39;;;;;;;4.05;2.00;;;;;;;28.36;nan;101163.22;5031510;28;20040;-68
2022/06/23 08:29:10;;;;;;;5.28;2.13;;;;;;;28.40;nan;101171.97;5031356;28;20375;-68
2022/06/23 08:31:37;;;;;;;3.75;2.17;;;;;;;28.36;nan;101165.91;5031568;28;20434;-69
2022/06/23 08:34:02;;;;;;;7.80;2.30;;;;;;;28.39;nan;101167.56;5031448;28;20029;-69
2022/06/23 08:36:41;;;;;;;6.90;2.17;;;;;;;28.37;nan;101164.97;5031549;28;20027;-68
2022/06/23 08:39:14;;;;;;;3.53;2.05;;;;;;;28.36;nan;101159.69;5022733;28;20060;-68
2022/06/23 08:41:51;;;;;;;6.90;2.25;;;;;;;28.40;nan;101155.88;5031138;28;20025;-68
2022/06/23 08:44:34;;;;;;;3.92;2.28;;;;;;;28.39;nan;101154.16;5031664;28;20022;-68
2022/06/23 08:47:12;;;;;;;4.18;2.40;;;;;;;28.42;nan;101156.69;5030841;28;20061;-70
2022/06/23 08:49:47;;;;;;;4.05;2.47;;;;;;;28.32;nan;101159.00;5037216;28;20116;-75
2022/06/23 08:52:22;;;;;;;5.38;3.08;;;;;;;28.40;nan;101156.75;5035596;28;20047;-75
2022/06/23 08:55:23;;;;;;;17.23;7.30;;;;;;;28.51;nan;101148.97;5035385;28;20049;-73
2022/06/23 08:57:54;;;;;;;20.45;9.00;;;;;;;28.59;nan;101149.41;5013561;28;20030;-71
2022/06/23 09:00:28;;;;;;;27.90;11.10;;;;;;;28.60;nan;101145.78;5023061;28;20040;-75
2022/06/23 09:02:57;;;;;;;52.75;19.65;;;;;;;28.56;nan;101141.50;5032219;28;20066;-66
2022/06/23 09:05:34;;;;;;;47.88;18.90;;;;;;;28.62;nan;101141.16;5026778;28;20036;-66
2022/06/23 09:08:31;;;;;;;41.45;15.15;;;;;;;28.72;nan;101143.34;5029663;28;20026;-68
2022/06/23 09:11:13;;;;;;;46.80;18.42;;;;;;;28.77;nan;101135.91;5028973;28;20411;-67
2022/06/23 09:13:41;;;;;;;48.33;19.25;;;;;;;28.83;nan;101136.41;5027850;28;20060;-67
2022/06/23 09:16:32;;;;;;;51.97;19.60;;;;;;;28.90;nan;101127.06;5030205;28;20083;-67
2022/06/23 09:19:39;;;;;;;50.88;20.13;;;;;;;28.97;nan;101123.03;5029190;28;20045;-68
2022/06/23 09:22:06;;;;;;;53.42;20.33;;;;;;;29.04;nan;101116.34;5028242;28;20033;-66
2022/06/23 09:24:56;;;;;;;54.70;22.15;;;;;;;29.09;nan;101120.59;5027199;28;20522;-66
2022/06/23 09:27:58;;;;;;;49.00;20.63;;;;;;;29.09;nan;101117.91;5028450;28;20100;-65
2022/06/23 09:30:39;;;;;;;52.20;19.83;;;;;;;29.17;nan;101120.97;5011688;28;20037;-65
2022/06/23 09:33:16;;;;;;;54.03;20.80;;;;;;;29.23;nan;101121.47;5013230;28;20120;-66
2022/06/23 09:36:10;;;;;;;47.90;19.52;;;;;;;29.27;nan;101125.72;5027265;28;20036;-66
2022/06/23 09:38:44;;;;;;;50.03;19.83;;;;;;;29.26;nan;101124.00;5027548;28;20371;-64
2022/06/23 09:41:36;;;;;;;43.47;18.75;;;;;;;29.29;nan;101122.94;5032152;28;20112;-65
2022/06/23 09:44:26;;;;;;;47.75;19.35;;;;;;;29.28;nan;101111.31;5032513;28;20052;-67
2022/06/23 09:47:06;;;;;;;40.42;16.40;;;;;;;28.98;nan;101105.97;5027035;28;20091;-71
2022/06/23 09:49:44;;;;;;;41.13;17.23;;;;;;;29.21;nan;101111.81;5030224;28;20044;-66
2022/06/23 09:52:18;;;;;;;39.20;16.20;;;;;;;29.14;nan;101108.63;5026024;28;20018;-68
2022/06/23 09:55:21;;;;;;;40.33;14.93;;;;;;;29.29;nan;101102.31;5032084;28;20044;-68
2022/06/23 09:58:07;;;;;;;36.58;15.25;;;;;;;29.30;nan;101108.53;5032408;28;20372;-73
2022/06/23 10:00:46;;;;;;;40.30;16.25;;;;;;;29.27;nan;101108.75;5027587;28;20487;-69
2022/06/23 10:03:39;;;;;;;38.30;14.98;;;;;;;29.41;nan;101111.47;5029004;28;20021;-70
2022/06/23 10:06:32;;;;;;;34.40;15.10;;;;;;;29.44;nan;101114.84;5031125;28;20459;-70
2022/06/23 10:09:18;;;;;;;32.00;13.75;;;;;;;29.49;nan;101108.31;5030625;28;20033;-71
2022/06/23 10:12:06;;;;;;;30.83;13.35;;;;;;;29.52;nan;101121.59;5000780;28;20467;-68
2022/06/23 10:14:50;;;;;;;30.48;12.65;;;;;;;29.53;nan;101113.41;5029845;28;20037;-71
2022/06/23 10:17:30;;;;;;;29.20;13.15;;;;;;;29.49;nan;101114.56;5031581;28;20091;-71
2022/06/23 10:20:07;;;;;;;25.33;11.27;;;;;;;29.47;nan;101104.84;5035822;28;20490;-71
2022/06/23 10:22:38;;;;;;;27.17;12.13;;;;;;;29.56;nan;101094.44;5025299;28;20029;-70
2022/06/23 10:25:29;;;;;;;26.40;10.65;;;;;;;29.43;nan;101096.13;5034287;28;20091;-70
2022/06/23 10:28:10;;;;;;;21.48;10.18;;;;;;;29.52;nan;101103.59;5035443;28;20017;-71
2022/06/23 10:31:18;;;;;;;25.73;10.30;;;;;;;29.50;nan;101086.75;5034874;28;20021;-70
2022/06/23 10:34:28;;;;;;;21.58;9.70;;;;;;;29.40;nan;101086.44;5029344;28;20116;-69
2022/06/23 10:36:56;;;;;;;21.63;9.50;;;;;;;29.40;nan;101085.56;5034330;28;20030;-70
2022/06/23 10:39:31;;;;;;;18.20;9.05;;;;;;;29.28;nan;101083.59;5035085;28;20381;-70
2022/06/23 10:42:16;;;;;;;20.20;9.27;;;;;;;29.47;nan;101078.84;5034328;28;20083;-70
2022/06/23 10:45:12;;;;;;;22.20;9.15;;;;;;;29.46;nan;101071.75;5034521;28;20042;-69
2022/06/23 10:48:22;;;;;;;21.15;9.23;;;;;;;29.36;nan;101063.41;5034637;28;20033;-70
2022/06/23 10:51:03;;;;;;;17.88;8.20;;;;;;;29.35;nan;101060.81;5027556;28;20041;-71
2022/06/23 10:53:46;;;;;;;20.30;8.77;;;;;;;29.35;nan;101056.31;5033258;28;20518;-70
2022/06/23 10:56:17;;;;;;;21.25;8.63;;;;;;;29.36;nan;101060.72;5034434;28;20052;-70
2022/06/23 10:59:04;;;;;;;19.90;8.82;;;;;;;29.28;nan;101059.44;5034469;28;20549;-71
2022/06/23 11:02:02;;;;;;;17.02;8.73;;;;;;;29.36;nan;101058.03;5034522;28;20026;-70
2022/06/23 11:05:06;;;;;;;17.77;8.55;;;;;;;29.40;nan;101040.75;5029583;28;20040;-68
2022/06/23 11:07:48;;;;;;;18.58;8.48;;;;;;;29.34;nan;101042.97;4989934;28;20387;-71
2022/06/23 11:10:16;;;;;;;20.80;8.63;;;;;;;29.20;nan;101038.44;5029831;28;20048;-71
2022/06/23 11:13:07;;;;;;;19.75;7.90;;;;;;;29.27;nan;101050.53;5030635;28;20482;-72
2022/06/23 11:15:57;;;;;;;23.45;8.27;;;;;;;29.42;nan;101043.38;5028177;28;20032;-68
2022/06/23 11:18:37;;;;;;;18.92;7.95;;;;;;;29.25;nan;101038.16;5028064;28;20423;-68
2022/06/23 11:21:27;;;;;;;15.52;7.82;;;;;;;29.49;nan;101042.03;5025456;28;20041;-68
2022/06/23 11:24:19;;;;;;;13.98;7.35;;;;;;;29.44;nan;101041.47;5029733;28;20120;-72
2022/06/23 11:26:53;;;;;;;17.75;7.25;;;;;;;29.63;nan;101035.78;5031865;28;20024;-77
2022/06/23 11:29:55;;;;;;;17.98;7.32;;;;;;;29.63;nan;101042.03;5031787;28;20025;-69
2022/06/23 11:32:42;;;;;;;15.70;6.75;;;;;;;29.58;nan;101033.38;5030070;28;20565;-74
2022/06/23 11:35:19;;;;;;;14.25;6.75;;;;;;;29.66;nan;101032.91;5036567;28;20034;-72
2022/06/23 11:38:25;;;;;;;14.55;6.65;;;;;;;29.87;nan;101025.31;5026223;28;20029;-70
2022/06/23 11:41:05;;;;;;;13.77;6.60;;;;;;;29.65;nan;101028.47;5032257;28;20171;-71
2022/06/23 11:43:50;;;;;;;18.65;6.30;;;;;;;29.69;nan;101021.97;5032989;28;20053;-69
2022/06/23 11:46:35;;;;;;;14.32;6.78;;;;;;;29.70;nan;101024.53;5028557;28;20083;-68
2022/06/23 11:49:10;;;;;;;15.60;5.93;;;;;;;29.66;nan;101022.16;5025801;28;20071;-69
2022/06/23 11:51:53;;;;;;;11.38;6.70;;;;;;;29.56;nan;101012.97;5033635;28;20025;-69
2022/06/23 11:54:37;;;;;;;12.02;5.95;;;;;;;29.56;nan;101013.81;5026220;28;20036;-68
2022/06/23 11:57:36;;;;;;;12.73;6.22;;;;;;;29.61;nan;101010.84;5029592;28;20088;-69
2022/06/23 12:00:07;;;;;;;11.00;6.00;;;;;;;29.57;nan;101009.31;5026280;28;20044;-69
2022/06/23 12:02:41;;;;;;;10.48;5.63;;;;;;;29.56;nan;101004.91;5029605;28;20026;-69
2022/06/23 12:05:12;;;;;;;10.38;5.82;;;;;;;29.53;nan;101002.38;5029819;28;20048;-69
2022/06/23 12:07:44;;;;;;;10.23;5.38;;;;;;;29.51;nan;100996.28;5029209;28;20030;-68
2022/06/23 12:10:25;;;;;;;8.27;4.95;;;;;;;29.60;nan;101004.59;5029148;28;20029;-68
2022/06/23 12:12:54;;;;;;;8.57;5.18;;;;;;;29.60;nan;100999.22;5029650;28;20041;-70
2022/06/23 12:15:28;;;;;;;12.30;5.38;;;;;;;29.59;nan;100999.31;5028103;28;20132;-69
2022/06/23 12:18:11;;;;;;;7.82;4.80;;;;;;;29.63;nan;100995.50;5027021;28;20075;-69
2022/06/23 12:20:39;;;;;;;;;;;;;;;29.67;nan;100991.63;5029729;28;20033;-68
2022/06/23 12:23:13;;;;;;;11.63;5.07;;;;;;;29.60;nan;100985.78;5029342;28;19963;-68
2022/06/23 12:26:06;;;;;;;8.80;5.10;;;;;;;29.64;nan;100981.09;5022390;28;20068;-68
2022/06/23 12:28:40;;;;;;;8.80;4.90;;;;;;;29.65;nan;100980.97;5024649;28;20087;-72
2022/06/23 12:31:26;;;;;;;9.60;4.90;;;;;;;30.03;nan;100983.03;5022413;28;20021;-71
2022/06/23 12:34:12;;;;;;;11.52;4.80;;;;;;;30.05;nan;100978.44;4989383;28;20518;-70
2022/06/23 12:37:02;;;;;;;7.57;4.45;;;;;;;30.04;nan;100974.88;4998861;28;20037;-71
2022/06/23 12:39:41;;;;;;;9.82;4.57;;;;;;;30.10;nan;100965.53;5028791;28;20076;-70
2022/06/23 12:42:19;;;;;;;6.10;4.25;;;;;;;30.10;nan;100976.28;5028207;28;20033;-70
2022/06/23 12:45:15;;;;;;;10.48;4.70;;;;;;;30.11;nan;100975.34;5030579;28;20384;-71
2022/06/23 12:47:53;;;;;;;11.93;4.50;;;;;;;30.13;nan;100959.97;5025672;28;20472;-74
2022/06/23 12:50:48;;;;;;;7.18;4.28;;;;;;;30.16;nan;100962.44;5027661;28;20034;-72